Latest Weather Observations for Dubbo

IDN60801

Issued at 10:02 am EST Sunday 2 August 2015 (issued every 30 minutes, with the page automatically refreshed every 10 minutes)

About weather observations | Map of weather stations | Latest weather observations for NSW | Other Formats
Station Details ID: 065070 Name: DUBBO AIRPORT AWS Lat: -32.22 Lon: 148.58 Height: 284.0 m
Data from the previous 72 hours. | See also: Recent months at Dubbo
Date/Time
EST
Temp
°C
App
Temp
°C
Dew
Point
Rel
Hum
%
Delta-T
°C
Wind Press
QNH
hPa
Press
MSL
hPa
Rain
since 9 am
mm
Dir
 
Spd
km/h
Gust
km/h
Spd
kts
Gust
kts
02/09:30am 17.9 12.3 7.0 49 5.5 NNW 26 35 14 19 1017.0 1017.2 0.0
02/09:00am 16.7 11.3 6.2 50 5.2 N 24 32 13 17 1017.0 1017.2 0.0
02/08:30am 15.2 11.2 6.5 56 4.3 N 17 24 9 13 1017.1 1017.3 0.0
02/08:00am 13.7 10.0 6.1 60 3.7 N 15 20 8 11 1017.1 1017.3 0.0
02/07:30am 12.2 8.7 5.6 64 3.1 NNW 13 17 7 9 1017.0 1017.2 0.0
02/07:00am 12.4 9.0 5.8 64 3.1 NNW 13 20 7 11 1017.1 1017.3 0.0
02/06:30am 12.5 9.1 6.1 65 3.1 N 13 19 7 10 1017.0 1017.2 0.0
02/05:30am 12.3 8.9 5.7 64 3.1 N 13 17 7 9 1016.7 1016.9 0.0
02/05:00am 12.8 9.9 6.4 65 3.1 N 11 15 6 8 1016.5 1016.7 0.0
02/04:30am 12.7 9.4 6.3 65 3.1 N 13 17 7 9 1016.3 1016.5 0.0
02/04:00am 12.4 9.1 6.2 66 3.0 N 13 19 7 10 1016.4 1016.6 0.0
02/03:30am 12.4 8.7 6.5 67 2.9 N 15 20 8 11 1016.5 1016.7 0.0
02/03:00am 12.5 8.5 6.8 68 2.8 N 17 20 9 11 1016.8 1017.0 0.0
02/02:30am 12.6 8.6 6.6 67 2.9 N 17 22 9 12 1017.0 1017.2 0.0
02/02:00am 12.1 8.3 5.9 66 2.9 N 15 17 8 9 1017.2 1017.4 0.0
02/01:30am 12.4 9.0 5.8 64 3.1 N 13 17 7 9 1017.3 1017.5 0.0
02/01:00am 13.2 9.1 6.3 63 3.3 N 17 22 9 12 1017.5 1017.7 0.0
02/12:30am 12.8 9.5 6.4 65 3.1 N 13 17 7 9 1017.7 1017.9 0.0
02/12:00am 11.7 9.5 6.0 68 2.7 NNE 7 9 4 5 1017.9 1018.1 0.0
 
Date/Time
EST
Temp
°C
App
Temp
°C
Dew
Point
Rel
Hum
%
Delta-T
°C
Wind Press
QNH
hPa
Press
MSL
hPa
Rain
since 9 am
mm
Dir
 
Spd
km/h
Gust
km/h
Spd
kts
Gust
kts
01/11:30pm 11.7 9.0 5.8 67 2.8 NNE 9 13 5 7 1018.1 1018.3 0.0
01/11:00pm 12.9 8.6 6.9 67 2.9 N 19 20 10 11 1018.1 1018.3 0.0
01/10:30pm 13.3 9.9 7.5 68 2.9 N 15 19 8 10 1018.4 1018.6 0.0
01/10:00pm 12.7 9.8 6.7 67 2.9 N 11 13 6 7 1018.6 1018.8 0.0
01/09:30pm 13.3 11.3 7.1 66 3.1 N 7 11 4 6 1018.8 1019.0 0.0
01/09:00pm 13.3 10.8 8.0 70 2.7 N 11 15 6 8 1018.9 1019.1 0.0
01/08:30pm 14.0 12.5 9.2 73 2.5 N 7 9 4 5 1018.9 1019.1 0.0
01/08:00pm 12.3 10.7 8.8 79 1.8 NNE 7 9 4 5 1019.0 1019.3 0.0
01/07:30pm 12.2 9.3 8.3 77 2.0 NNE 13 15 7 8 1018.8 1019.0 0.0
01/07:00pm 13.4 11.5 9.1 75 2.2 N 9 11 5 6 1019.0 1019.3 0.0
01/06:30pm 13.4 10.9 8.0 70 2.7 N 11 13 6 7 1018.8 1019.0 0.0
01/06:00pm 14.6 12.1 8.3 66 3.2 N 11 13 6 7 1018.6 1018.8 0.0
01/05:30pm 15.9 13.4 8.4 61 3.9 N 11 13 6 7 1018.4 1018.6 0.0
01/05:00pm 17.0 14.1 8.2 56 4.5 NNW 13 17 7 9 1018.2 1018.4 0.0
01/04:30pm 18.2 14.3 8.5 53 5.1 NNW 19 26 10 14 1018.1 1018.3 0.0
01/04:00pm 18.3 15.2 8.8 54 5.0 NNW 15 19 8 10 1018.6 1018.8 0.0
01/03:30pm 18.6 14.1 8.6 52 5.3 NNW 22 30 12 16 1018.5 1018.7 0.0
01/03:00pm 19.5 14.5 8.2 48 5.9 NNW 24 32 13 17 1018.4 1018.6 0.0
01/02:30pm 19.7 13.9 8.1 47 6.1 NNW 28 35 15 19 1018.6 1018.8 0.0
01/02:00pm 18.9 13.4 7.4 47 5.9 NNW 26 35 14 19 1018.8 1019.0 0.0
01/01:30pm 18.3 12.9 8.0 51 5.3 NNW 26 33 14 18 1019.1 1019.4 0.0
01/01:00pm 17.9 12.8 7.6 51 5.3 NNW 24 32 13 17 1019.3 1019.6 0.0
01/12:30pm 18.8 13.4 8.2 50 5.5 NNW 26 35 14 19 1019.7 1019.9 0.0
01/12:00pm 18.3 12.4 7.7 50 5.5 NNW 28 33 15 18 1019.9 1020.1 0.0
01/11:30am 17.8 12.4 7.8 52 5.2 NW 26 35 14 19 1020.2 1020.4 0.0
01/11:00am 16.9 11.5 6.4 50 5.2 NNW 24 33 13 18 1020.7 1020.9 0.0
01/10:30am 13.9 12.0 7.4 65 3.2 NW 7 11 4 6 1020.9 1021.1 0.0
01/10:00am 12.7 11.9 6.5 66 3.0 CALM 0 0 0 0 1021.1 1021.3 0.0
01/09:30am 10.6 9.2 5.4 70 2.4 ESE 2 7 1 4 1021.4 1021.8 0.0
01/09:00am 9.1 6.6 6.5 84 1.2 SSE 9 11 5 6 1021.3 1021.7 0.0
01/08:30am 6.9 3.3 4.9 87 0.9 SE 13 15 7 8 1021.3 1021.7 0.0
01/08:00am 6.0 2.7 4.8 92 0.5 SSE 11 13 6 7 1021.3 1021.7 0.0
01/07:30am 4.4 1.0 4.1 98 0.1 SE 11 13 6 7 1020.7 1021.0 0.0
01/07:00am 3.0 -0.4 2.1 94 0.4 SE 9 11 5 6 1020.7 1021.0 0.0
01/06:30am 4.4 1.0 3.8 96 0.3 SE 11 13 6 7 1020.5 1020.8 0.0
01/06:00am 4.1 -0.1 4.0 99 0.0 SSE 15 19 8 10 1020.3 1020.6 0.0
01/05:30am 2.8 -0.9 2.5 98 0.1 SSE 11 15 6 8 1020.0 1020.3 0.0
01/05:00am 2.4 -1.7 2.0 97 0.2 SE 13 15 7 8 1020.0 1020.3 0.0
01/04:30am 3.1 -0.9 2.8 98 0.1 SE 13 15 7 8 1020.0 1020.3 0.0
01/04:00am 2.3 -1.1 1.7 96 0.2 SE 9 13 5 7 1020.1 1020.4 0.0
01/03:30am 2.8 -1.3 2.1 95 0.3 SSE 13 15 7 8 1020.2 1020.5 0.0
01/03:00am 3.7 -0.6 3.1 96 0.2 SSE 15 19 8 10 1020.8 1021.1 0.0
01/02:30am 3.7 -0.3 3.1 96 0.2 SE 13 15 7 8 1021.2 1021.6 0.0
01/02:00am 4.1 0.5 3.2 94 0.4 SE 11 11 6 6 1021.4 1021.8 0.0
01/01:30am 3.7 0.2 3.3 97 0.2 ESE 11 13 6 7 1021.3 1021.7 0.0
01/01:00am 3.1 -0.2 2.2 94 0.4 E 9 11 5 6 1021.6 1022.0 0.0
01/12:30am 3.7 0.9 3.1 96 0.2 SE 7 9 4 5 1022.0 1022.4 0.0
01/12:00am 2.7 -0.3 1.7 93 0.4 ESE 7 9 4 5 1021.9 1022.3 0.0
 
Date/Time
EST
Temp
°C
App
Temp
°C
Dew
Point
Rel
Hum
%
Delta-T
°C
Wind Press
QNH
hPa
Press
MSL
hPa
Rain
since 9 am
mm
Dir
 
Spd
km/h
Gust
km/h
Spd
kts
Gust
kts
31/11:30pm 2.9 -1.0 1.3 89 0.6 ESE 11 11 6 6 1022.2 1022.6 0.0
31/11:00pm 4.9 1.7 0.9 75 1.6 E 7 9 4 5 1022.3 1022.7 0.0
31/10:30pm 7.0 4.5 4.0 81 1.3 E 6 7 3 4 1022.3 1022.7 0.0
31/10:00pm 7.9 5.6 4.7 80 1.4 ENE 6 7 3 4 1022.5 1022.9 0.0
31/09:30pm 7.2 4.6 4.3 82 1.3 E 7 9 4 5 1022.7 1023.1 0.0
31/09:00pm 8.5 7.2 4.3 75 1.9 CALM 0 0 0 0 1022.5 1022.9 0.0
31/08:30pm 8.5 7.2 4.3 75 1.9 CALM 0 0 0 0 1022.2 1022.6 0.0
31/08:00pm 9.0 6.5 4.6 74 2.0 NE 7 11 4 6 1022.1 1022.5 0.0
31/07:30pm 8.6 6.4 3.6 71 2.2 NNW 4 7 2 4 1021.9 1022.3 0.0
31/07:00pm 9.3 7.1 3.3 66 2.6 NW 4 7 2 4 1021.8 1022.2 0.0
31/06:30pm 10.7 8.1 4.4 65 2.9 NW 7 9 4 5 1021.7 1022.1 0.0
31/06:00pm 11.0 7.9 3.5 60 3.3 WNW 9 11 5 6 1021.5 1021.9 0.0
31/05:30pm 12.9 9.1 3.8 54 4.2 NW 13 15 7 8 1021.3 1021.7 0.0
31/05:00pm 14.5 10.8 4.5 51 4.7 NW 13 15 7 8 1021.1 1021.5 0.0
31/04:30pm 16.0 12.2 3.8 44 5.7 NW 13 15 7 8 1020.9 1021.2 0.0
31/04:00pm 16.5 12.6 3.6 42 6.0 NNW 13 17 7 9 1021.1 1021.5 0.0
31/03:30pm 16.8 12.7 2.0 37 6.7 NNW 13 17 7 9 1021.0 1021.4 0.0
31/03:00pm 17.0 12.8 1.8 36 6.9 NW 13 19 7 10 1020.9 1021.2 0.0
31/02:30pm 16.9 13.7 3.2 40 6.4 NW 9 17 5 9 1021.1 1021.5 0.0
31/02:00pm 16.5 12.6 1.0 35 6.9 N 11 17 6 9 1021.4 1021.8 0.0
31/01:30pm 16.5 13.7 2.9 40 6.3 NNW 7 11 4 6 1021.8 1022.2 0.0
31/01:00pm 15.9 13.3 4.3 46 5.5 NNW 7 13 4 7 1022.2 1022.6 0.0
31/12:30pm 15.3 13.2 4.1 47 5.3 WNW 4 9 2 5 1022.5 1022.9 0.0
31/12:00pm 15.2 12.9 4.9 50 4.9 NNW 6 11 3 6 1022.8 1023.2 0.0
31/11:30am 14.4 11.7 5.5 55 4.3 WSW 9 11 5 6 1023.0 1023.4 0.0
31/11:00am 13.4 11.2 6.0 61 3.5 NNW 7 15 4 8 1023.4 1023.7 0.0
31/10:30am 12.7 10.0 5.8 63 3.3 NW 9 13 5 7 1023.1 1023.5 0.0
31/10:00am 11.9 9.4 6.4 69 2.6 NW 9 13 5 7 1023.2 1023.6 0.0
31/09:30am 10.9 9.3 6.3 73 2.2 NNW 4 11 2 6 1023.0 1023.4 0.0
31/09:00am 8.8 7.2 6.4 85 1.1 E 4 7 2 4 1022.9 1023.3 0.0
31/08:30am 7.4 5.2 6.3 93 0.5 ENE 7 9 4 5 1022.8 1023.2 0.0
31/08:00am 5.3 3.5 5.2 99 0.0 E 4 9 2 5 1022.6 1023.0 0.0
31/07:30am 3.1 -0.1 3.0 99 0.0 E 9 11 5 6 1022.4 1022.8 0.0
31/07:00am 3.2 0.6 3.1 99 0.0 E 6 9 3 5 1021.9 1022.3 0.0
31/06:30am 2.8 -0.1 2.7 99 0.0 E 7 7 4 4 1021.5 1021.9 0.0
31/06:00am 2.9 0.0 2.8 99 0.0 E 7 7 4 4 1021.5 1021.9 0.0
31/05:40am 3.3 1.8 3.2 99 0.0 CALM 0 2 0 1 1021.5 1021.9 0.0
31/05:30am 3.1 1.6 3.0 99 0.0 CALM 0 0 0 0 1021.4 1021.8 0.0
31/05:00am 3.4 2.0 3.3 99 0.0 CALM 0 0 0 0 1021.2 1021.6 0.0
31/04:30am 3.2 0.4 3.1 99 0.0 E 7 9 4 5 1021.3 1021.7 0.0
31/04:12am 2.5 0.5 2.4 99 0.0 SE 2 7 1 4 1021.4 1021.8 0.0
31/04:00am 3.2 0.0 3.1 99 0.0 SE 9 11 5 6 1021.5 1021.9 0.0
31/03:30am 3.7 -0.2 3.6 99 0.0 SSE 13 15 7 8 1021.7 1022.1 0.0
31/03:00am 3.2 0.4 2.9 98 0.1 SSE 7 9 4 5 1021.9 1022.3 0.0
31/02:30am 4.9 2.5 4.5 97 0.2 ESE 6 7 3 4 1022.0 1022.4 0.0
31/02:00am 5.6 3.4 5.3 98 0.1 ENE 6 7 3 4 1022.3 1022.7 0.0
31/01:30am 5.0 2.5 4.7 98 0.1 ENE 7 9 4 5 1022.1 1022.5 0.0
31/01:00am 5.2 2.3 4.6 96 0.3 ENE 9 11 5 6 1022.2 1022.6 0.0
31/12:30am 5.3 2.8 4.7 96 0.3 ENE 7 9 4 5 1022.1 1022.5 0.0
31/12:00am 4.9 1.9 4.0 94 0.4 ENE 9 11 5 6 1022.3 1022.7 0.0
 
Date/Time
EST
Temp
°C
App
Temp
°C
Dew
Point
Rel
Hum
%
Delta-T
°C
Wind Press
QNH
hPa
Press
MSL
hPa
Rain
since 9 am
mm
Dir
 
Spd
km/h
Gust
km/h
Spd
kts
Gust
kts
30/11:30pm 6.0 5.0 5.6 97 0.2 CALM 0 0 0 0 1022.4 1022.8 0.0
30/11:00pm 5.6 3.1 4.9 95 0.3 NE 7 9 4 5 1022.5 1022.9 0.0
30/10:30pm 6.2 3.4 5.3 94 0.4 ENE 9 9 5 5 1022.5 1022.9 0.0
30/10:00pm 6.4 4.0 5.2 92 0.5 ENE 7 9 4 5 1022.7 1023.1 0.0
30/09:30pm 7.0 6.0 5.8 92 0.5 CALM 0 0 0 0 1023.0 1023.4 0.0
30/09:00pm 7.2 6.3 6.1 93 0.5 CALM 0 7 0 4 1022.6 1023.0 0.0
30/08:30pm 6.3 3.8 4.9 91 0.6 NE 7 9 4 5 1022.5 1022.9 0.0
30/08:00pm 8.2 6.0 6.0 86 1.0 N 7 9 4 5 1022.8 1023.2 0.0
30/07:30pm 8.1 6.3 5.6 84 1.1 N 4 7 2 4 1023.0 1023.4 0.0
30/07:00pm 8.7 5.9 5.1 78 1.6 WNW 9 13 5 7 1022.8 1023.2 0.0
30/06:30pm 9.8 7.6 6.2 78 1.7 WNW 7 11 4 6 1022.8 1023.2 0.0
30/06:00pm 10.7 8.2 6.5 75 2.0 NW 9 11 5 6 1022.7 1023.1 0.0
30/05:30pm 10.7 7.4 6.3 74 2.1 NNW 13 15 7 8 1022.5 1022.9 0.0
30/05:00pm 11.9 8.6 6.2 68 2.7 NNW 13 17 7 9 1022.8 1023.2 0.0
30/04:30pm 14.0 9.6 6.6 61 3.6 NNW 19 24 10 13 1022.8 1023.2 0.0
30/04:00pm 14.7 9.7 6.3 57 4.1 NNW 22 30 12 16 1023.1 1023.5 0.0
30/03:30pm 14.0 8.8 5.6 57 4.0 NW 22 30 12 16 1023.8 1024.1 0.0
30/03:00pm 15.6 10.6 6.6 55 4.4 NNW 22 32 12 17 1024.0 1024.4 0.0
30/02:30pm 14.8 9.2 5.6 54 4.4 NNW 24 32 13 17 1024.1 1024.5 0.0
30/02:00pm 15.7 10.6 6.2 53 4.6 NNW 22 33 12 18 1024.7 1025.1 0.0
30/01:30pm 15.4 10.0 6.4 55 4.4 NW 24 32 13 17 1025.1 1025.5 0.0
30/01:00pm 14.6 9.0 5.4 54 4.4 NNW 24 33 13 18 1025.6 1026.0 0.0
30/12:30pm 14.9 8.8 6.5 57 4.1 NNW 28 37 15 20 1025.9 1026.3 0.0
30/12:00pm 15.0 9.1 5.8 54 4.4 NNW 26 35 14 19 1026.2 1026.6 0.0
30/11:30am 14.1 7.6 4.9 54 4.4 NNW 28 35 15 19 1026.7 1027.1 0.0
30/11:00am 13.8 8.6 5.7 58 3.9 NNW 22 32 12 17 1027.4 1027.8 0.0
30/10:30am 12.4 9.4 5.8 64 3.1 N 11 19 6 10 1027.7 1028.1 0.0

Other Formats:

Comma delimited format used in spreadsheet applications
http://www.bom.gov.au/fwo/IDN60801/IDN60801.95719.axf

JavaScript Object Notation format (JSON) in row-major order
http://www.bom.gov.au/fwo/IDN60801/IDN60801.95719.json